Nearby METAR Reports

 

KNFE - Fentress Naval, Virginia, USA
Distance from station: ENE 5mi, 7km
Updated: Wed, 29-Jun-2022 5:56pm EDT
Clear
Clear
 Wind from SE
Wind: SE 7 mph , 11 km/h
Temperature: 81°F , 27°C
Heat Index: 82°F , 28°C
Dew Point: 61°F , 16°C
Humidity: 51%
Barometer: 30.23 inHg , 1023.7 hPa
Clouds: Clear
Visibility: 10 miles , 16 km
2022/06/29 21:56 KNFE 292156Z AUTO 14006KT 10SM CLR 27/16 A3023 RMK AO2 SLP238 T02720156
KCPK - Chesapeake, Virginia, USA
Distance from station: W 6mi, 9km
Updated: Wed, 29-Jun-2022 6:35pm EDT
Partly cloudy
Partly cloudy
 Wind from ESE
Wind: ESE 7 mph , 11 km/h
Temperature: 79°F , 26°C
Dew Point: 61°F , 16°C
Humidity: 54%
Barometer: 30.22 inHg , 1023.4 hPa
Clouds: Partly cloudy
Visibility: 10 miles , 16 km
Cloud details: Partly cloudy 4900 ft
2022/06/29 22:35 KCPK 292235Z AUTO 12006KT 10SM SCT049 26/16 A3022 RMK AO2 T02600156
 
KNTU - Oceana Nas/Souce, Virginia, USA
Distance from station: NE 14mi, 23km
Updated: Wed, 29-Jun-2022 5:56pm EDT
Mostly cloudy
Mostly cloudy
 Wind from SSE
Wind: SSE 14 mph , 22 km/h
Temperature: 79°F , 26°C
Dew Point: 59°F , 15°C
Humidity: 51%
Barometer: 30.22 inHg , 1023.4 hPa
Clouds: Mostly cloudy
Visibility: 10 miles , 16 km
Cloud details: Few Clouds 4000 ft
Mostly cloudy 30000 ft
2022/06/29 21:56 KNTU 292156Z 15012KT 10SM FEW040 BKN300 26/15 A3022 RMK AO2 SLP235 T02560150
KORF - Norfolk, Virginia, USA
Distance from station: N 15mi, 24km
Updated: Wed, 29-Jun-2022 5:51pm EDT
Clear
Clear
 Wind from S
Wind: S 10 mph , 17 km/h
Temperature: 81°F , 27°C
Heat Index: 82°F , 28°C
Dew Point: 61°F , 16°C
Humidity: 51%
Barometer: 30.21 inHg , 1023 hPa
Clouds: Clear
Visibility: 10 miles , 16 km
2022/06/29 21:51 KORF 292151Z 17009KT 10SM CLR 27/16 A3021 RMK AO2 SLP230 T02670156
 
KPVG - Norfolk/Hampton, Virginia, USA
Distance from station: WNW 15mi, 24km
Updated: Wed, 22-Jun-2022 6:11pm EDT
NOT Current
Nearby thunderstorm, Mostly cloudy
Nearby thunderstorm, Mostly cloudy
 Wind from varies
Wind: varies 3 mph , 6 km/h
Temperature: 75°F , 24°C
Dew Point: 73°F , 23°C
Humidity: 94%
Barometer: 29.83 inHg , 1010.2 hPa
Summary: Nearby Thunderstorm
Clouds: Mostly cloudy
Visibility: 10 miles , 16 km
Cloud details: Mostly cloudy 5500 ft
2022/06/22 22:11 KPVG 222211Z AUTO VRB03KT 10SM VCTS BKN055 24/23 A2983 RMK AO2 LTG DSNT N AND NE TSB05 PNO $
KNGU - Norfolk Nas/Cham, Virginia, USA
Distance from station: N 16mi, 26km
Updated: Wed, 29-Jun-2022 5:59pm EDT
Mostly cloudy
Mostly cloudy
 Wind from S
Wind: S 7 mph , 11 km/h
Temperature: 81°F , 27°C
Heat Index: 82°F , 28°C
Dew Point: 63°F , 17°C
Humidity: 54%
Barometer: 30.23 inHg , 1023.7 hPa
Clouds: Mostly cloudy
Visibility: 10 miles , 16 km
Cloud details: Mostly cloudy 28000 ft
2022/06/29 21:59 KNGU 292159Z 17006KT 10SM BKN280 27/17 A3023 RMK AO2 SLP236 T02720167 $
 
KSFQ - Suffolk, Virginia, USA
Distance from station: W 21mi, 34km
Updated: Wed, 29-Jun-2022 6:35pm EDT
Clear
Clear
 Wind from SW
Wind: SW 3 mph , 6 km/h
Temperature: 82°F , 28°C
Heat Index: 83°F , 28°C
Dew Point: 63°F , 17°C
Humidity: 51%
Barometer: 30.24 inHg , 1024 hPa
Clouds: Clear
Visibility: 10 miles , 16 km
2022/06/29 22:35 KSFQ 292235Z AUTO 22003KT 10SM CLR 28/17 A3024 RMK AO2 T02760174
KONX - Currituck, North Carolina, USA
Distance from station: SSE 22mi, 36km
Updated: Wed, 29-Jun-2022 6:15pm EDT
Overcast
Overcast
 Wind from SE
Wind: SE 5 mph , 7 km/h
Temperature: 77°F , 25°C
Dew Point: 55°F , 13°C
Humidity: 47%
Barometer: 30.24 inHg , 1024 hPa
Clouds: Overcast
Visibility: 10 miles , 16 km
Cloud details: Overcast 7500 ft
2022/06/29 22:15 KONX 292215Z AUTO 13004KT 10SM OVC075 25/13 A3024 RMK AO2 T02460134
 
KLFI - Langley Afb/Hamp, Virginia, USA
Distance from station: NNW 28mi, 45km
Updated: Wed, 29-Jun-2022 5:56pm EDT
Clear
Clear
 Wind from E
Wind: E 9 mph , 15 km/h
Temperature: 81°F , 27°C
Heat Index: 82°F , 28°C
Dew Point: 63°F , 17°C
Humidity: 54%
Barometer: 30.21 inHg , 1023 hPa
Clouds: Clear
Visibility: 9 miles , 14 km
2022/06/29 21:56 KLFI 292156Z AUTO 10008KT 9SM CLR 27/17 A3021 RMK AO2 SLP236 T02730171 $
KECG - Elizabeth City, North Carolina, USA
Distance from station: S 29mi, 46km
Updated: Wed, 29-Jun-2022 5:54pm EDT
Overcast
Overcast
 Wind from SSE
Wind: SSE 8 mph , 13 km/h
Temperature: 79°F , 26°C
Dew Point: 63°F , 17°C
Humidity: 58%
Barometer: 30.24 inHg , 1024 hPa
Clouds: Overcast
Visibility: 10 miles , 16 km
Cloud details: Overcast 7000 ft
2022/06/29 21:54 KECG 292154Z 16007KT 10SM OVC070 26/17 A3024 RMK AO2 SLP240 T02610167
 
KPHF - Newport News, Virginia, USA
Distance from station: NNW 35mi, 56km
Updated: Wed, 29-Jun-2022 5:54pm EDT
Few Clouds
Few Clouds
 Wind from SSW
Wind: SSW 8 mph , 13 km/h
Temperature: 82°F , 28°C
Heat Index: 84°F , 29°C
Dew Point: 64°F , 18°C
Humidity: 55%
Barometer: 30.21 inHg , 1023 hPa
Clouds: Few Clouds
Visibility: 10 miles , 16 km
Cloud details: Few Clouds 4800 ft
2022/06/29 21:54 KPHF 292154Z 20007KT 10SM FEW048 28/18 A3021 RMK AO2 SLP230 T02780178
KFAF - Ft Eustis/Felker, Virginia, USA
Distance from station: NW 37mi, 60km
Updated: Wed, 29-Jun-2022 5:56pm EDT
Clear
Clear
 Wind from S
Wind: S 7 mph , 11 km/h
Temperature: 81°F , 27°C
Heat Index: 83°F , 28°C
Dew Point: 64°F , 18°C
Humidity: 58%
Barometer: 30.19 inHg , 1022.4 hPa
Clouds: Clear
Visibility: 10 miles , 16 km
2022/06/29 21:56 KFAF 292156Z AUTO 17006KT 10SM CLR 27/18 A3019 RMK AO2 SLP227 T02730177 $
 
KFKN - Franklin/J B Ros, Virginia, USA
Distance from station: W 38mi, 61km
Updated: Wed, 29-Jun-2022 6:35pm EDT
Clear
Clear
 Wind from SSW
Wind: SSW 7 mph , 11 km/h
Temperature: 81°F , 27°C
Heat Index: 82°F , 28°C
Dew Point: 63°F , 17°C
Humidity: 54%
Barometer: 30.23 inHg , 1023.7 hPa
Clouds: Clear
Visibility: 10 miles , 16 km
2022/06/29 22:35 KFKN 292235Z AUTO 20006KT 10SM CLR 27/17 A3023 RMK AO2 T02710171
KJGG - Williamsburg, Virginia, USA
Distance from station: NW 47mi, 76km
Updated: Wed, 29-Jun-2022 6:35pm EDT
Clear
Clear
 Wind from S
Wind: S 8 mph , 13 km/h
Temperature: 86°F , 30°C
Heat Index: 88°F , 31°C
Dew Point: 66°F , 19°C
Humidity: 52%
Barometer: 30.22 inHg , 1023.4 hPa
Clouds: Clear
Visibility: 10 miles , 16 km
2022/06/29 22:35 KJGG 292235Z AUTO 19007KT 10SM CLR 30/19 A3022 RMK AO1
 
KAKQ - Norfolk/Wakefld, Virginia, USA
Distance from station: WNW 48mi, 78km
Updated: Wed, 29-Jun-2022 5:54pm EDT
Clear
Clear
 Wind from varies
Wind: varies 5 mph , 7 km/h
Temperature: 82°F , 28°C
Heat Index: 84°F , 29°C
Dew Point: 64°F , 18°C
Humidity: 55%
Barometer: 30.22 inHg , 1023.4 hPa
Clouds: Clear
Visibility: 10 miles , 16 km
2022/06/29 21:54 KAKQ 292154Z AUTO VRB04KT 10SM CLR 28/18 A3022 RMK AO2 SLP233 T02780183
KEDE - Edenton, North Carolina, USA
Distance from station: SSW 50mi, 80km
Updated: Wed, 29-Jun-2022 6:35pm EDT
Clear
Clear
 Wind from S
Wind: S 7 mph , 11 km/h
Temperature: 81°F , 27°C
Heat Index: 85°F , 29°C
Dew Point: 70°F , 21°C
Humidity: 70%
Barometer: 30.25 inHg , 1024.4 hPa
Clouds: Clear
Visibility: 7 miles , 11 km
2022/06/29 22:35 KEDE 292235Z AUTO 17006KT 7SM CLR 27/21 A3025 RMK AO2 T02700207